Sands Point, New Jersey
Current Conditions -  °F | °C
As of 12:15 AM on Wednesday 26 Nov 2014 (Local Time) from KBLM Reporting Station
Broken Clouds Broken Clouds  
Wind Chill: 44°   Ceiling: 12000
Heat Index: 46°   Visibility: 10mi
Dew Point: 30°   Wind: 5mph
Humidity: 53%   Direction: 320°NW
Pressure: 30.16"   Gusts: NA
Location:  40.3143°N, 74.0217°W
Report Text: KBLM 260515Z AUTO 32004KT 10SM BKN120 08/M01 A3016 RMK AO1
Loading
Personal Weather Stations






























Interactive Weather Map New forecast layout! Learn more

10-Day Weather Forecast

Advertisements
Track Severe Weather on mobile